Time;durP1;ratioP1;P1;durP2;ratioP2;P2;SDS_P1;SDS_P2;PMS_P1;PMS_P2;Temp;Humidity;BMP_temperature;BMP_pressure;BME280_temperature;BME280_humidity;BME280_pressure;Samples;Min_cycle;Max_cycle;Signal;HPM_P1;HPM_P2
2023/05/15 00:00:13;;;;;;;25.35;13.23;;;17.60;84.80;;;;;;7388444;19;20011;-76
2023/05/15 00:02:43;;;;;;;20.00;13.13;;;17.60;84.60;;;;;;7387359;19;20038;-75
2023/05/15 00:05:12;;;;;;;23.17;13.70;;;17.60;84.60;;;;;;7387808;19;20006;-75
2023/05/15 00:07:42;;;;;;;19.67;12.93;;;17.60;84.40;;;;;;7387017;19;20007;-75
2023/05/15 00:10:14;;;;;;;23.02;12.82;;;17.60;84.40;;;;;;7386533;19;20019;-76
2023/05/15 00:12:42;;;;;;;23.60;14.80;;;17.60;84.30;;;;;;7406211;19;19999;-76
2023/05/15 00:15:12;;;;;;;18.42;13.80;;;17.50;85.00;;;;;;7385219;19;20011;-76
2023/05/15 00:17:40;;;;;;;21.83;13.88;;;17.50;84.10;;;;;;7386008;19;20027;-76
2023/05/15 00:20:10;;;;;;;19.77;13.27;;;17.40;84.30;;;;;;7386241;19;20386;-76
2023/05/15 00:22:39;;;;;;;21.45;13.43;;;17.30;84.40;;;;;;7384556;19;20014;-75
2023/05/15 00:25:09;;;;;;;20.67;13.82;;;17.30;84.70;;;;;;7405174;19;20011;-76
2023/05/15 00:27:40;;;;;;;27.40;14.45;;;17.30;84.50;;;;;;7385875;19;20015;-76
2023/05/15 00:30:10;;;;;;;27.73;15.13;;;17.30;84.40;;;;;;7385284;19;20034;-75
2023/05/15 00:32:39;;;;;;;23.65;15.20;;;17.20;84.60;;;;;;7385509;19;20003;-75
2023/05/15 00:35:09;;;;;;;22.40;14.65;;;17.20;84.80;;;;;;7386040;19;20016;-74
2023/05/15 00:37:37;;;;;;;24.00;14.10;;;17.20;85.10;;;;;;7383436;19;20362;-75
2023/05/15 00:40:08;;;;;;;27.35;16.42;;;17.20;85.10;;;;;;7407863;19;20039;-75
2023/05/15 00:42:40;;;;;;;21.77;14.18;;;17.10;85.00;;;;;;7386907;19;19999;-75
2023/05/15 00:45:12;;;;;;;19.05;13.40;;;17.10;85.40;;;;;;7385731;19;19999;-75
2023/05/15 00:47:41;;;;;;;;;;;17.10;85.00;;;;;;7388756;19;20003;-74
2023/05/15 00:50:11;;;;;;;19.73;13.00;;;17.20;84.80;;;;;;7386871;19;19966;-75
2023/05/15 00:52:40;;;;;;;19.23;12.48;;;17.20;84.60;;;;;;7388488;19;20002;-75
2023/05/15 00:55:09;;;;;;;25.20;13.65;;;17.20;84.50;;;;;;7400284;19;20031;-75
2023/05/15 00:57:42;;;;;;;20.88;13.68;;;17.20;84.40;;;;;;7406230;19;20374;-76
2023/05/15 01:00:14;;;;;;;21.70;14.23;;;17.30;84.30;;;;;;7384895;19;20078;-74
2023/05/15 01:02:43;;;;;;;24.17;14.70;;;17.30;84.20;;;;;;7385385;19;20295;-77
2023/05/15 01:05:15;;;;;;;22.40;14.40;;;17.20;83.90;;;;;;7388242;19;20228;-75
2023/05/15 01:07:50;;;;;;;27.50;14.63;;;17.20;83.90;;;;;;7388756;19;20015;-75
2023/05/15 01:10:21;;;;;;;26.17;13.73;;;17.20;83.80;;;;;;7385364;19;20336;-75
2023/05/15 01:12:54;;;;;;;23.13;14.00;;;17.20;83.50;;;;;;7404188;19;20011;-75
2023/05/15 01:15:23;;;;;;;24.92;14.05;;;17.20;83.50;;;;;;7384142;19;20007;-75
2023/05/15 01:17:53;;;;;;;27.50;14.07;;;17.20;83.70;;;;;;7383781;19;20271;-74
2023/05/15 01:20:24;;;;;;;23.98;13.43;;;17.20;83.80;;;;;;7383121;19;20002;-74
2023/05/15 01:23:06;;;;;;;25.63;15.60;;;17.20;83.90;;;;;;7383973;19;20020;-74
2023/05/15 01:26:07;;;;;;;31.63;19.45;;;17.30;84.00;;;;;;7383924;19;20252;-74
2023/05/15 01:28:44;;;;;;;30.52;20.17;;;17.20;84.10;;;;;;7382959;19;20007;-74
2023/05/15 01:31:20;;;;;;;32.42;20.85;;;17.10;84.70;;;;;;7383111;19;20006;-74
2023/05/15 01:33:54;;;;;;;30.98;19.27;;;17.10;85.00;;;;;;7403380;19;20002;-74
2023/05/15 01:36:31;;;;;;;39.38;22.02;;;17.10;85.10;;;;;;7383142;19;20267;-75
2023/05/15 01:39:03;;;;;;;40.85;23.42;;;17.00;85.20;;;;;;7382981;19;20019;-75
2023/05/15 01:41:38;;;;;;;40.70;24.27;;;17.00;85.80;;;;;;7384423;19;20027;-75
2023/05/15 01:44:13;;;;;;;45.30;26.60;;;17.00;86.10;;;;;;7384865;19;20003;-75
2023/05/15 01:46:46;;;;;;;51.70;29.05;;;16.90;87.00;;;;;;7384453;19;20031;-75
2023/05/15 01:49:17;;;;;;;50.20;28.50;;;17.00;87.60;;;;;;7383622;19;20015;-75
2023/05/15 01:51:50;;;;;;;66.20;34.95;;;17.00;87.90;;;;;;7405897;19;20006;-74
2023/05/15 01:54:20;;;;;;;57.75;33.42;;;16.90;88.50;;;;;;7382032;19;20271;-74
2023/05/15 01:56:49;;;;;;;64.07;34.00;;;16.80;89.10;;;;;;7385068;19;20016;-74
2023/05/15 01:59:22;;;;;;;58.78;33.83;;;16.70;89.40;;;;;;7387168;19;20087;-74
2023/05/15 02:01:53;;;;;;;59.30;34.38;;;16.70;89.70;;;;;;7385012;19;20425;-75
2023/05/15 02:04:22;;;;;;;70.80;38.00;;;16.60;90.10;;;;;;7384917;19;20015;-74
2023/05/15 02:06:52;;;;;;;70.68;37.03;;;16.60;90.00;;;;;;7411911;19;20011;-74
2023/05/15 02:09:22;;;;;;;64.75;36.28;;;16.50;90.00;;;;;;7396181;19;20003;-75
2023/05/15 02:11:52;;;;;;;72.30;38.15;;;16.50;90.10;;;;;;7388614;19;20026;-74
2023/05/15 02:14:24;;;;;;;71.05;37.72;;;16.40;90.10;;;;;;7384074;19;20027;-74
2023/05/15 02:16:52;;;;;;;73.03;37.33;;;16.40;90.20;;;;;;7384639;19;20280;-74
2023/05/15 02:19:21;;;;;;;68.75;36.78;;;16.30;90.30;;;;;;7383841;19;20260;-74
2023/05/15 02:21:50;;;;;;;70.82;37.92;;;16.40;90.20;;;;;;7404895;19;20014;-74
2023/05/15 02:24:19;;;;;;;73.68;38.47;;;16.20;90.10;;;;;;7380721;19;20023;-74
2023/05/15 02:26:58;;;;;;;77.55;37.55;;;16.10;90.30;;;;;;7381248;19;20342;-74
2023/05/15 02:29:36;;;;;;;71.50;38.22;;;16.10;90.50;;;;;;7382217;19;20007;-74
2023/05/15 02:32:13;;;;;;;72.63;38.22;;;16.10;90.30;;;;;;7382133;19;20002;-75
2023/05/15 02:34:51;;;;;;;78.10;39.65;;;16.00;90.50;;;;;;7381923;19;20010;-74
2023/05/15 02:37:24;;;;;;;71.72;37.20;;;16.10;90.40;;;;;;7381928;19;20023;-74
2023/05/15 02:39:54;;;;;;;71.82;38.13;;;16.10;90.80;;;;;;7403174;19;20015;-73
2023/05/15 02:42:23;;;;;;;67.45;35.75;;;15.70;90.70;;;;;;7382132;19;20011;-75
2023/05/15 02:44:55;;;;;;;69.07;37.50;;;15.80;90.60;;;;;;7381071;19;20014;-76
2023/05/15 02:47:25;;;;;;;73.93;37.55;;;15.80;90.50;;;;;;7381431;19;20014;-76
2023/05/15 02:49:54;;;;;;;82.07;40.78;;;15.80;90.60;;;;;;7404016;19;20014;-74
2023/05/15 02:52:25;;;;;;;77.40;40.28;;;15.60;90.60;;;;;;7381437;19;20017;-74
2023/05/15 02:54:54;;;;;;;80.00;37.90;;;15.50;90.90;;;;;;7385236;19;20386;-75
2023/05/15 02:57:22;;;;;;;74.28;38.45;;;15.40;91.10;;;;;;7382257;19;20015;-74
2023/05/15 02:59:54;;;;;;;80.25;39.60;;;15.30;91.20;;;;;;7403062;19;20003;-75
2023/05/15 03:02:22;;;;;;;;;;;15.10;91.40;;;;;;7384677;19;20006;-75
2023/05/15 03:04:51;;;;;;;80.93;38.88;;;15.10;91.80;;;;;;7380976;19;19911;-75
2023/05/15 03:07:20;;;;;;;80.90;38.80;;;15.20;91.60;;;;;;7384732;19;20002;-76
2023/05/15 03:09:49;;;;;;;80.90;40.42;;;15.40;91.60;;;;;;7384628;19;20014;-75
2023/05/15 03:12:17;;;;;;;80.15;40.88;;;15.30;91.40;;;;;;7388321;19;20015;-75
2023/05/15 03:14:46;;;;;;;85.50;41.50;;;15.30;91.50;;;;;;7416317;19;20027;-75
2023/05/15 03:17:17;;;;;;;83.20;40.22;;;15.30;91.50;;;;;;7382385;19;20035;-76
2023/05/15 03:19:46;;;;;;;83.93;40.47;;;15.20;91.50;;;;;;7381077;19;19999;-75
2023/05/15 03:22:15;;;;;;;81.60;39.92;;;15.20;91.50;;;;;;7380713;19;20011;-75
2023/05/15 03:24:44;;;;;;;84.07;39.97;;;15.40;91.30;;;;;;7381959;19;20011;-76
2023/05/15 03:27:15;;;;;;;86.18;40.30;;;15.40;91.30;;;;;;7386298;19;20018;-76
2023/05/15 03:29:44;;;;;;;78.63;37.15;;;15.10;91.50;;;;;;7405102;19;20234;-75
2023/05/15 03:32:13;;;;;;;75.53;37.50;;;15.40;91.40;;;;;;7379037;19;20009;-75
2023/05/15 03:34:44;;;;;;;80.18;39.45;;;15.20;91.20;;;;;;7383767;19;20403;-75
2023/05/15 03:37:13;;;;;;;68.22;35.35;;;15.30;91.30;;;;;;7381901;19;20007;-75
2023/05/15 03:39:41;;;;;;;71.97;36.85;;;15.30;91.20;;;;;;7378993;19;20003;-75
2023/05/15 03:42:10;;;;;;;76.30;37.05;;;15.30;91.10;;;;;;7404391;19;20010;-75
2023/05/15 03:44:39;;;;;;;71.03;37.08;;;15.40;91.00;;;;;;7379592;19;20059;-75
2023/05/15 03:47:10;;;;;;;70.68;35.45;;;15.40;90.90;;;;;;7379514;19;20007;-75
2023/05/15 03:49:40;;;;;;;73.35;36.13;;;15.30;91.00;;;;;;7380521;19;20019;-75
2023/05/15 03:52:12;;;;;;;71.10;36.55;;;15.50;91.00;;;;;;7379878;19;20007;-75
2023/05/15 03:54:41;;;;;;;75.22;36.80;;;15.60;90.70;;;;;;7380309;19;20223;-75
2023/05/15 03:57:09;;;;;;;71.38;34.67;;;15.30;90.60;;;;;;7401915;19;20311;-75
2023/05/15 03:59:38;;;;;;;67.72;35.58;;;15.10;90.80;;;;;;7379655;19;20002;-75
2023/05/15 04:02:07;;;;;;;71.20;35.67;;;14.90;91.10;;;;;;7379374;19;20014;-75
2023/05/15 04:04:38;;;;;;;72.15;35.13;;;14.90;91.20;;;;;;7378541;19;20083;-75
2023/05/15 04:07:07;;;;;;;68.73;32.40;;;14.90;91.30;;;;;;7381520;19;20032;-75
2023/05/15 04:09:38;;;;;;;68.15;33.50;;;15.00;91.40;;;;;;7379251;19;20015;-75
2023/05/15 04:12:07;;;;;;;68.63;33.17;;;15.00;91.10;;;;;;7398766;19;20394;-75
2023/05/15 04:14:36;;;;;;;70.28;34.10;;;15.20;91.00;;;;;;7377864;19;20010;-75
2023/05/15 04:17:05;;;;;;;64.22;33.00;;;15.40;90.80;;;;;;7380389;19;19999;-75
2023/05/15 04:19:34;;;;;;;67.03;33.10;;;15.40;90.60;;;;;;7383070;19;20032;-75
2023/05/15 04:22:03;;;;;;;63.20;33.28;;;15.40;90.50;;;;;;7383123;19;19999;-75
2023/05/15 04:24:31;;;;;;;67.07;33.63;;;15.20;90.70;;;;;;7383386;19;20023;-75
2023/05/15 04:27:04;;;;;;;67.30;33.15;;;15.10;90.90;;;;;;7408575;19;20018;-75
2023/05/15 04:29:33;;;;;;;64.47;32.60;;;15.10;90.80;;;;;;7395994;19;20014;-75
2023/05/15 04:32:01;;;;;;;70.57;34.47;;;15.30;90.70;;;;;;7395069;19;20003;-76
2023/05/15 04:34:32;;;;;;;68.82;33.30;;;15.20;90.70;;;;;;7389597;19;20022;-75
2023/05/15 04:37:01;;;;;;;65.35;32.45;;;15.20;90.70;;;;;;7389552;19;20014;-75
2023/05/15 04:39:30;;;;;;;65.63;33.08;;;15.20;90.70;;;;;;7388213;19;20010;-75
2023/05/15 04:41:58;;;;;;;63.80;33.47;;;15.20;90.70;;;;;;7410462;19;20022;-75
2023/05/15 04:44:30;;;;;;;63.25;32.42;;;15.40;90.60;;;;;;7385236;19;20019;-75
2023/05/15 04:46:59;;;;;;;61.47;31.58;;;15.50;90.60;;;;;;7385770;19;20247;-75
2023/05/15 04:49:28;;;;;;;66.50;32.65;;;15.50;90.40;;;;;;7385882;19;20008;-75
2023/05/15 04:51:56;;;;;;;71.43;34.10;;;15.40;90.50;;;;;;7385672;19;20002;-75
2023/05/15 04:54:25;;;;;;;68.70;31.80;;;15.30;90.70;;;;;;7385330;19;20007;-75
2023/05/15 04:56:54;;;;;;;67.00;32.38;;;15.30;90.70;;;;;;7406689;19;20031;-75
2023/05/15 04:59:23;;;;;;;70.00;32.13;;;15.40;90.70;;;;;;7384562;19;20024;-75
2023/05/15 05:01:54;;;;;;;62.88;31.55;;;15.50;90.50;;;;;;7385079;19;20010;-75
2023/05/15 05:04:23;;;;;;;62.63;30.70;;;15.60;90.50;;;;;;7384059;19;20003;-75
2023/05/15 05:06:52;;;;;;;62.70;30.40;;;15.70;90.50;;;;;;7384777;19;20015;-75
2023/05/15 05:09:21;;;;;;;64.95;31.95;;;15.80;90.50;;;;;;7385354;19;20011;-76
2023/05/15 05:11:50;;;;;;;65.18;32.25;;;15.90;90.10;;;;;;7406212;19;20030;-75
2023/05/15 05:14:19;;;;;;;71.72;32.72;;;15.70;90.30;;;;;;7384413;19;20028;-74
2023/05/15 05:16:47;;;;;;;70.95;34.08;;;15.70;90.30;;;;;;7385078;19;20007;-74
2023/05/15 05:19:19;;;;;;;71.80;33.22;;;15.60;90.40;;;;;;7385078;19;20010;-74
2023/05/15 05:21:47;;;;;;;64.20;31.88;;;15.30;90.90;;;;;;7385159;19;20019;-74
2023/05/15 05:24:16;;;;;;;73.60;34.17;;;15.50;90.80;;;;;;7383413;19;20039;-74
2023/05/15 05:26:45;;;;;;;66.25;32.53;;;15.40;91.10;;;;;;7408431;19;20014;-74
2023/05/15 05:29:14;;;;;;;63.60;32.13;;;15.60;91.00;;;;;;7386588;19;20058;-75
2023/05/15 05:31:43;;;;;;;69.95;31.63;;;15.50;90.70;;;;;;7387808;19;20020;-75
2023/05/15 05:34:12;;;;;;;65.80;31.73;;;15.60;90.70;;;;;;7386833;19;20401;-75
2023/05/15 05:36:44;;;;;;;66.88;31.45;;;15.50;90.80;;;;;;7381689;19;20054;-75
2023/05/15 05:39:12;;;;;;;63.45;31.20;;;15.50;91.00;;;;;;7383841;19;20014;-75
2023/05/15 05:41:41;;;;;;;62.80;31.10;;;15.60;90.90;;;;;;7405546;19;20023;-75
2023/05/15 05:44:10;;;;;;;67.07;30.52;;;15.60;91.10;;;;;;7383673;19;19999;-75
2023/05/15 05:46:39;;;;;;;68.57;32.17;;;15.70;91.10;;;;;;7386158;19;20006;-75
2023/05/15 05:49:07;;;;;;;63.63;32.67;;;15.80;91.00;;;;;;7388486;19;20016;-76
2023/05/15 05:51:38;;;;;;;75.68;33.67;;;15.80;91.10;;;;;;7388250;19;20026;-75
2023/05/15 05:54:09;;;;;;;79.88;35.22;;;15.70;91.40;;;;;;7407624;19;20132;-75
2023/05/15 05:56:38;;;;;;;79.38;35.15;;;15.70;91.70;;;;;;7382469;19;20230;-75
2023/05/15 05:59:07;;;;;;;78.38;36.97;;;15.60;91.90;;;;;;7383678;19;20070;-75
2023/05/15 06:01:36;;;;;;;75.28;33.63;;;15.80;91.90;;;;;;7383852;19;19998;-75
2023/05/15 06:04:04;;;;;;;81.45;38.20;;;15.90;92.00;;;;;;7384633;19;20055;-75
2023/05/15 06:06:33;;;;;;;79.60;34.60;;;16.00;91.90;;;;;;7383923;19;20025;-75
2023/05/15 06:09:02;;;;;;;88.90;36.70;;;16.10;91.80;;;;;;7406053;19;20007;-75
2023/05/15 06:11:34;;;;;;;79.85;35.28;;;16.10;91.70;;;;;;7382743;19;20075;-75
2023/05/15 06:14:03;;;;;;;88.65;36.75;;;16.10;91.60;;;;;;7382653;19;20023;-76
2023/05/15 06:16:32;;;;;;;90.43;39.00;;;16.10;91.70;;;;;;7384396;19;20031;-75
2023/05/15 06:19:01;;;;;;;85.38;37.97;;;16.00;91.80;;;;;;7388305;19;20014;-75
2023/05/15 06:21:29;;;;;;;95.53;38.97;;;16.00;92.00;;;;;;7381885;19;20357;-75
2023/05/15 06:23:59;;;;;;;85.25;37.75;;;15.80;92.40;;;;;;7403270;19;20014;-75
2023/05/15 06:26:28;;;;;;;89.03;38.38;;;15.80;92.30;;;;;;7382055;19;20014;-75
2023/05/15 06:28:59;;;;;;;99.15;38.53;;;15.70;92.20;;;;;;7381786;19;20381;-75
2023/05/15 06:31:28;;;;;;;84.07;38.58;;;15.70;92.30;;;;;;7383159;19;20006;-75
2023/05/15 06:33:57;;;;;;;89.60;37.55;;;15.90;92.40;;;;;;7384954;19;20015;-75
2023/05/15 06:36:25;;;;;;;85.68;37.45;;;15.80;92.40;;;;;;7381157;19;19998;-75
2023/05/15 06:38:54;;;;;;;87.22;39.05;;;16.00;92.30;;;;;;7403117;19;20031;-75
2023/05/15 06:41:23;;;;;;;81.43;35.70;;;16.10;92.10;;;;;;7385540;19;20013;-75
2023/05/15 06:43:52;;;;;;;86.88;36.20;;;16.20;91.90;;;;;;7386188;19;20011;-75
2023/05/15 06:46:23;;;;;;;76.50;33.72;;;16.20;91.90;;;;;;7385381;19;20240;-76
2023/05/15 06:48:51;;;;;;;69.80;32.97;;;16.40;91.90;;;;;;7382692;19;20425;-75
2023/05/15 06:51:20;;;;;;;76.25;30.92;;;16.40;91.60;;;;;;7391047;19;20007;-75
2023/05/15 06:53:49;;;;;;;75.93;30.88;;;16.40;91.60;;;;;;7414507;19;20252;-75
2023/05/15 06:56:18;;;;;;;75.20;31.45;;;16.50;91.60;;;;;;7385161;19;20014;-76
2023/05/15 06:58:46;;;;;;;77.45;32.30;;;16.60;91.50;;;;;;7385888;19;20039;-75
2023/05/15 07:01:15;;;;;;;80.30;31.48;;;16.60;91.40;;;;;;7384644;19;20016;-75
2023/05/15 07:03:46;;;;;;;77.40;32.85;;;16.60;91.30;;;;;;7384763;19;20020;-75
2023/05/15 07:06:15;;;;;;;81.57;33.53;;;16.50;91.70;;;;;;7382173;19;20014;-75
2023/05/15 07:08:44;;;;;;;158.32;37.13;;;16.50;91.70;;;;;;7402711;19;20028;-75
2023/05/15 07:11:13;;;;;;;87.05;36.63;;;16.50;92.10;;;;;;7380529;19;20371;-75
2023/05/15 07:13:42;;;;;;;93.18;36.83;;;16.50;91.70;;;;;;7381604;19;20002;-75
2023/05/15 07:16:10;;;;;;;91.00;36.92;;;16.50;91.80;;;;;;7381222;19;20291;-75
2023/05/15 07:18:39;;;;;;;99.28;38.88;;;16.40;91.80;;;;;;7381727;19;20271;-75
2023/05/15 07:21:10;;;;;;;95.22;38.08;;;16.30;92.00;;;;;;7402713;19;20248;-75
2023/05/15 07:23:39;;;;;;;90.95;36.67;;;16.30;92.10;;;;;;7380511;19;20006;-75
2023/05/15 07:26:08;;;;;;;90.95;35.85;;;16.40;92.00;;;;;;7380395;19;20003;-75
2023/05/15 07:28:37;;;;;;;92.70;35.50;;;16.40;92.10;;;;;;7381652;19;20026;-75
2023/05/15 07:31:05;;;;;;;87.45;36.30;;;16.30;91.90;;;;;;7380517;19;20009;-75
2023/05/15 07:33:34;;;;;;;93.60;34.35;;;16.60;92.00;;;;;;7380562;19;20026;-76
2023/05/15 07:36:03;;;;;;;80.45;33.45;;;16.50;91.90;;;;;;7401705;19;20011;-75
2023/05/15 07:38:35;;;;;;;90.57;34.50;;;16.60;91.80;;;;;;7379874;19;20007;-75
2023/05/15 07:41:03;;;;;;;85.60;36.03;;;16.80;91.80;;;;;;7379220;19;20003;-75
2023/05/15 07:43:32;;;;;;;100.72;37.83;;;16.90;91.50;;;;;;7380600;19;20018;-75
2023/05/15 07:46:01;;;;;;;101.70;38.78;;;16.80;91.50;;;;;;7380748;19;20003;-75
2023/05/15 07:48:29;;;;;;;97.55;39.00;;;16.70;91.70;;;;;;7379978;19;20007;-75
2023/05/15 07:50:58;;;;;;;109.55;39.30;;;16.80;91.80;;;;;;7401959;19;20011;-75
2023/05/15 07:53:27;;;;;;;99.10;36.63;;;16.70;92.10;;;;;;7382730;19;20007;-76
2023/05/15 07:55:58;;;;;;;85.60;36.30;;;16.70;91.90;;;;;;7381890;19;20007;-75
2023/05/15 07:58:27;;;;;;;89.85;36.05;;;16.50;92.00;;;;;;7383968;19;20299;-75
2023/05/15 08:00:56;;;;;;;90.30;36.40;;;16.60;92.30;;;;;;7386595;19;20270;-75
2023/05/15 08:03:27;;;;;;;86.53;34.97;;;16.60;92.40;;;;;;7385091;19;20379;-75
2023/05/15 08:05:56;;;;;;;86.15;34.65;;;16.60;92.30;;;;;;7407565;19;20251;-75
2023/05/15 08:08:24;;;;;;;76.07;34.20;;;16.60;92.30;;;;;;7388756;19;20056;-75
2023/05/15 08:10:53;;;;;;;85.00;35.70;;;16.70;92.30;;;;;;7390126;19;20006;-75
2023/05/15 08:13:24;;;;;;;89.22;34.50;;;16.50;92.50;;;;;;7389432;19;20015;-75
2023/05/15 08:15:53;;;;;;;84.35;34.42;;;16.60;92.50;;;;;;7389987;19;20059;-75
2023/05/15 08:18:22;;;;;;;84.80;34.65;;;16.60;92.50;;;;;;7385496;19;20014;-75
2023/05/15 08:20:51;;;;;;;93.82;34.90;;;16.40;92.70;;;;;;7406762;19;20003;-76
2023/05/15 08:23:20;;;;;;;88.05;35.05;;;16.50;92.80;;;;;;7385020;19;20010;-76
2023/05/15 08:25:50;;;;;;;85.75;36.67;;;16.40;92.80;;;;;;7388490;19;20049;-75
2023/05/15 08:28:19;;;;;;;87.28;36.58;;;16.70;92.70;;;;;;7384866;19;20011;-76
2023/05/15 08:30:51;;;;;;;90.18;35.28;;;16.60;92.90;;;;;;7386437;19;20019;-75
2023/05/15 08:33:20;;;;;;;87.40;34.92;;;16.80;92.80;;;;;;7386191;19;20011;-75
2023/05/15 08:35:50;;;;;;;82.00;32.35;;;16.70;92.70;;;;;;7407287;19;20027;-75
2023/05/15 08:38:18;;;;;;;90.72;35.85;;;17.00;92.80;;;;;;7385570;19;20010;-75
2023/05/15 08:40:51;;;;;;;82.63;32.83;;;17.10;92.50;;;;;;7385865;19;20007;-75
2023/05/15 08:43:22;;;;;;;77.63;32.92;;;17.20;92.40;;;;;;7386443;19;20035;-75
2023/05/15 08:45:55;;;;;;;;;;;17.20;92.10;;;;;;7387318;19;20003;-75
2023/05/15 08:48:26;;;;;;;78.25;33.72;;;17.30;92.20;;;;;;7386160;19;19923;-75
2023/05/15 08:50:56;;;;;;;;;;;17.40;92.00;;;;;;7408134;19;20283;-76
2023/05/15 08:53:25;;;;;;;78.97;31.70;;;17.50;92.30;;;;;;7386463;19;20243;-75
2023/05/15 08:55:54;;;;;;;77.25;31.17;;;17.70;91.90;;;;;;7385115;19;20007;-75
2023/05/15 08:58:24;;;;;;;83.35;33.35;;;17.60;91.70;;;;;;7386587;19;20015;-75
2023/05/15 09:00:56;;;;;;;82.45;32.67;;;17.70;91.50;;;;;;7386268;19;20405;-75
2023/05/15 09:03:25;;;;;;;77.90;30.95;;;17.70;91.60;;;;;;7386266;19;20015;-75
2023/05/15 09:05:54;;;;;;;79.68;30.27;;;17.80;91.30;;;;;;7407878;19;20006;-75
2023/05/15 09:08:24;;;;;;;73.43;30.13;;;17.80;91.50;;;;;;7389513;19;20257;-75
2023/05/15 09:10:54;;;;;;;77.50;32.00;;;17.90;91.20;;;;;;7387933;19;20006;-76
2023/05/15 09:13:23;;;;;;;77.25;30.20;;;17.80;90.90;;;;;;7393042;19;20051;-75
2023/05/15 09:15:52;;;;;;;77.53;31.27;;;17.70;91.00;;;;;;7399773;19;20007;-76
2023/05/15 09:18:23;;;;;;;74.15;29.80;;;17.60;91.20;;;;;;7391852;19;20010;-76
2023/05/15 09:20:52;;;;;;;;;;;17.50;91.10;;;;;;7408798;19;20003;-76
2023/05/15 09:23:26;;;;;;;68.10;27.65;;;17.60;91.10;;;;;;7386650;19;20124;-76
2023/05/15 09:25:55;;;;;;;64.47;27.60;;;17.40;90.90;;;;;;7388256;19;20002;-76
2023/05/15 09:28:30;;;;;;;64.63;26.80;;;17.50;91.30;;;;;;7388340;19;20114;-76
2023/05/15 09:31:01;;;;;;;67.20;27.27;;;17.70;91.10;;;;;;7387576;19;20408;-75
2023/05/15 09:33:34;;;;;;;58.28;25.88;;;18.00;90.60;;;;;;7387598;19;20013;-75
2023/05/15 09:36:04;;;;;;;57.05;26.10;;;18.00;90.30;;;;;;7409061;19;20019;-76
2023/05/15 09:38:35;;;;;;;58.47;25.17;;;18.20;90.00;;;;;;7385457;19;20035;-77
2023/05/15 09:41:05;;;;;;;56.20;25.52;;;18.40;89.70;;;;;;7385037;19;20011;-75
2023/05/15 09:43:36;;;;;;;61.05;25.80;;;18.40;89.40;;;;;;7384029;19;20075;-75
2023/05/15 09:46:05;;;;;;;53.72;24.77;;;18.30;89.90;;;;;;7383168;19;20010;-76
2023/05/15 09:48:37;;;;;;;56.80;25.10;;;18.30;89.20;;;;;;7384528;19;20380;-76
2023/05/15 09:51:16;;;;;;;52.13;23.83;;;18.20;89.10;;;;;;7403705;19;20003;-76
2023/05/15 09:53:45;;;;;;;59.38;24.23;;;18.50;89.00;;;;;;7383980;19;20006;-77
2023/05/15 09:56:14;;;;;;;58.05;24.73;;;18.70;88.20;;;;;;7383085;19;20076;-75
2023/05/15 09:58:54;;;;;;;59.17;25.85;;;18.70;88.50;;;;;;7383034;19;20028;-76
2023/05/15 10:01:24;;;;;;;56.30;24.80;;;18.90;87.70;;;;;;7383088;19;20010;-76
2023/05/15 10:04:04;;;;;;;44.65;22.65;;;18.90;88.00;;;;;;7382950;19;20011;-76
2023/05/15 10:06:37;;;;;;;49.97;22.45;;;18.80;87.90;;;;;;7384065;19;19996;-76
2023/05/15 10:09:06;;;;;;;51.60;24.42;;;18.80;87.90;;;;;;7404629;19;20688;-76
2023/05/15 10:11:37;;;;;;;50.88;24.90;;;18.70;87.90;;;;;;7384387;19;20221;-76
2023/05/15 10:14:07;;;;;;;49.70;23.85;;;18.90;87.80;;;;;;7383176;19;20066;-76
2023/05/15 10:16:37;;;;;;;45.73;24.13;;;18.80;87.70;;;;;;7383816;19;20014;-76
2023/05/15 10:19:11;;;;;;;48.45;22.70;;;18.60;87.80;;;;;;7388618;19;20003;-76
2023/05/15 10:21:42;;;;;;;50.22;24.15;;;18.70;87.90;;;;;;7386626;19;20007;-76
2023/05/15 10:24:12;;;;;;;46.10;24.10;;;18.70;87.90;;;;;;7407070;19;20244;-76
2023/05/15 10:26:42;;;;;;;47.85;23.67;;;18.80;87.80;;;;;;7385727;19;20007;-76
2023/05/15 10:29:12;;;;;;;43.50;21.95;;;18.90;87.70;;;;;;7384006;19;20006;-75
2023/05/15 10:31:44;;;;;;;52.67;23.45;;;19.20;87.50;;;;;;7385118;19;20285;-75
2023/05/15 10:34:16;;;;;;;52.75;24.33;;;19.20;86.60;;;;;;7385089;19;20434;-75
2023/05/15 10:36:45;;;;;;;50.03;24.90;;;19.20;86.40;;;;;;7385546;19;20128;-75
2023/05/15 10:39:14;;;;;;;47.30;23.60;;;19.10;85.90;;;;;;7386686;19;20039;-75
2023/05/15 10:41:44;;;;;;;48.20;23.60;;;19.10;86.30;;;;;;7405536;19;20011;-75
2023/05/15 10:44:13;;;;;;;50.05;22.83;;;19.20;86.90;;;;;;7385951;19;20068;-75
2023/05/15 10:46:43;;;;;;;51.15;22.98;;;19.10;86.30;;;;;;7382819;19;20028;-75
2023/05/15 10:49:15;;;;;;;49.80;23.75;;;19.10;86.60;;;;;;7382436;19;20236;-75
2023/05/15 10:51:44;;;;;;;;;;;19.20;86.30;;;;;;7383331;19;20010;-75
2023/05/15 10:54:12;;;;;;;44.80;23.58;;;19.40;86.60;;;;;;7386049;19;19917;-76
2023/05/15 10:56:43;;;;;;;49.30;23.80;;;19.30;85.60;;;;;;7401811;19;20342;-76
2023/05/15 10:59:13;;;;;;;47.22;24.15;;;19.40;86.10;;;;;;7381978;19;20025;-76
2023/05/15 11:01:42;;;;;;;50.88;23.95;;;19.20;86.10;;;;;;7381758;19;20010;-75
2023/05/15 11:04:16;;;;;;;47.88;23.70;;;19.10;87.40;;;;;;7381797;19;20009;-76
2023/05/15 11:06:46;;;;;;;48.63;24.77;;;19.10;87.50;;;;;;7381387;19;20252;-75
2023/05/15 11:09:36;;;;;;;48.83;23.95;;;19.20;87.10;;;;;;7381784;19;20006;-76
2023/05/15 11:12:07;;;;;;;40.42;21.58;;;19.20;86.60;;;;;;7402007;19;20062;-75
2023/05/15 11:14:38;;;;;;;51.22;23.75;;;19.40;86.60;;;;;;7383353;19;20016;-75
2023/05/15 11:17:07;;;;;;;;;;;19.30;86.30;;;;;;7381028;19;20011;-75
2023/05/15 11:19:43;;;;;;;45.08;22.17;;;19.30;86.00;;;;;;7380564;19;19914;-76
2023/05/15 11:22:22;;;;;;;47.53;23.17;;;19.20;85.50;;;;;;7380702;19;20017;-76
2023/05/15 11:24:55;;;;;;;45.42;21.80;;;19.40;85.70;;;;;;7379795;19;20023;-76
2023/05/15 11:27:26;;;;;;;47.15;22.15;;;19.60;85.10;;;;;;7382080;19;20062;-76
2023/05/15 11:30:11;;;;;;;51.97;22.40;;;19.50;85.20;;;;;;7401791;19;20010;-76
2023/05/15 11:32:51;;;;;;;45.67;22.27;;;19.60;85.10;;;;;;7383017;19;20361;-76
2023/05/15 11:35:31;;;;;;;44.42;22.75;;;19.70;85.20;;;;;;7391724;19;20009;-76
2023/05/15 11:38:01;;;;;;;43.65;22.92;;;19.70;84.80;;;;;;7401048;19;20222;-75
2023/05/15 11:40:31;;;;;;;40.97;22.02;;;19.80;84.80;;;;;;7396918;19;20014;-76
2023/05/15 11:43:06;;;;;;;46.47;22.73;;;19.70;85.00;;;;;;7391473;19;20021;-76
2023/05/15 11:45:37;;;;;;;50.72;23.50;;;19.80;85.00;;;;;;7390153;19;20015;-75
2023/05/15 11:48:07;;;;;;;56.57;24.70;;;19.90;84.80;;;;;;7409533;19;20232;-76
2023/05/15 11:50:39;;;;;;;44.60;22.63;;;19.90;84.30;;;;;;7388692;19;19998;-76
2023/05/15 11:53:12;;;;;;;55.92;24.48;;;19.80;84.20;;;;;;7391402;19;20014;-75
2023/05/15 11:55:42;;;;;;;46.65;23.95;;;19.50;84.70;;;;;;7391132;19;20031;-76
2023/05/15 11:58:15;;;;;;;57.63;25.30;;;19.50;85.10;;;;;;7390136;19;20022;-76
2023/05/15 12:00:44;;;;;;;50.88;25.00;;;19.30;85.50;;;;;;7388987;19;20312;-76
2023/05/15 12:03:19;;;;;;;53.20;25.38;;;19.20;86.30;;;;;;7386727;19;20014;-76
2023/05/15 12:05:50;;;;;;;59.15;26.92;;;19.10;86.80;;;;;;7406914;19;20011;-76
2023/05/15 12:08:19;;;;;;;;;;;19.10;87.60;;;;;;7388022;19;20003;-76
2023/05/15 12:10:48;;;;;;;55.13;26.13;;;19.10;88.30;;;;;;7389611;19;19915;-76
2023/05/15 12:13:19;;;;;;;49.25;26.23;;;19.20;88.20;;;;;;7387107;19;20031;-75
2023/05/15 12:15:48;;;;;;;69.28;31.13;;;19.30;88.90;;;;;;7387702;19;20010;-76
2023/05/15 12:18:17;;;;;;;48.88;24.77;;;19.30;89.40;;;;;;7385463;19;20003;-76
2023/05/15 12:20:46;;;;;;;47.95;24.45;;;19.10;89.80;;;;;;7408522;19;20358;-76
2023/05/15 12:23:22;;;;;;;44.40;22.73;;;19.20;90.00;;;;;;7386298;19;20011;-76
2023/05/15 12:25:53;;;;;;;43.42;22.17;;;19.30;89.80;;;;;;7392125;19;20023;-76
2023/05/15 12:28:23;;;;;;;43.15;22.38;;;19.20;88.80;;;;;;7389286;19;20006;-75
2023/05/15 12:30:53;;;;;;;40.03;20.15;;;19.00;90.00;;;;;;7386671;19;20010;-75
2023/05/15 12:33:22;;;;;;;41.85;20.05;;;19.10;89.40;;;;;;7384954;19;20003;-75
2023/05/15 12:35:55;;;;;;;34.13;20.13;;;19.10;89.90;;;;;;7408773;19;20017;-75
2023/05/15 12:38:26;;;;;;;38.50;19.80;;;19.10;89.40;;;;;;7383621;19;20333;-75
2023/05/15 12:40:55;;;;;;;33.20;18.33;;;19.00;90.10;;;;;;7385499;19;20022;-75
2023/05/15 12:43:26;;;;;;;34.33;18.23;;;19.00;90.00;;;;;;7386151;19;20062;-75